Time;durP1;ratioP1;P1;durP2;ratioP2;P2;SDS_P1;SDS_P2;PMS_P1;PMS_P2;Temp;Humidity;BMP_temperature;BMP_pressure;BME280_temperature;BME280_humidity;BME280_pressure;Samples;Min_cycle;Max_cycle;Signal;HPM_P1;HPM_P2
2022/01/23 00:02:15;;;;;;;;;43.25;36.25;;;;;-147.17;100.00;50485.75;5028383;28;51916;-58
2022/01/23 00:04:41;;;;;;;;;41.00;32.75;;;;;-147.17;100.00;50479.84;5019632;28;50948;-57
2022/01/23 00:07:09;;;;;;;;;39.25;35.00;;;;;-147.17;100.00;50501.50;5012304;28;51142;-58
2022/01/23 00:09:36;;;;;;;;;42.25;35.75;;;;;-147.17;100.00;50493.63;5020504;28;51238;-58
2022/01/23 00:12:06;;;;;;;;;36.50;33.50;;;;;-147.17;100.00;50493.63;5016066;28;51440;-59
2022/01/23 00:17:20;;;;;;;;;43.75;38.00;;;;;-147.17;100.00;50489.69;5021269;28;51105;-58
2022/01/23 00:19:48;;;;;;;;;41.00;37.00;;;;;-147.17;100.00;50497.56;5019567;28;51324;-59
2022/01/23 00:22:14;;;;;;;;;41.25;35.75;;;;;-147.17;100.00;50497.56;5019073;28;52040;-59
2022/01/23 00:32:49;;;;;;;;;44.25;38.75;;;;;-147.17;100.00;50517.25;5023265;28;51552;-58
2022/01/23 00:35:15;;;;;;;;;50.75;41.00;;;;;-147.17;100.00;50515.28;5019474;28;51031;-58
2022/01/23 00:37:41;;;;;;;;;42.75;37.50;;;;;-147.17;100.00;50509.38;5017191;28;51126;-59
2022/01/23 00:40:07;;;;;;;;;47.50;39.00;;;;;-147.17;100.00;50497.56;5016804;28;51142;-57
2022/01/23 00:42:34;;;;;;;;;39.50;37.00;;;;;-147.17;100.00;50511.34;5014803;28;52148;-56
2022/01/23 00:45:24;;;;;;;;;43.75;35.50;;;;;-147.17;100.00;50497.56;5019347;28;52666;-56
2022/01/23 00:47:45;;;;;;;;;45.25;39.75;;;;;-147.17;100.00;50515.28;5022326;28;51127;-58
2022/01/23 00:50:10;;;;;;;;;46.50;39.00;;;;;-147.17;100.00;50503.47;5027643;28;51081;-57
2022/01/23 00:52:35;;;;;;;;;40.25;31.75;;;;;-147.17;100.00;50495.59;5020109;28;51712;-59
2022/01/23 00:55:04;;;;;;;;;45.75;39.00;;;;;-147.17;100.00;50507.41;5013186;28;51155;-60
2022/01/23 00:57:30;;;;;;;;;45.00;39.25;;;;;-147.17;100.00;50462.13;4975392;28;1353590;-58
2022/01/23 00:59:56;;;;;;;;;40.75;37.50;;;;;-147.17;100.00;50497.56;5026216;28;51201;-58
2022/01/23 01:02:21;;;;;;;;;31.00;25.75;;;;;-147.17;100.00;50497.56;5021315;28;50988;-58
2022/01/23 01:04:47;;;;;;;;;47.50;36.75;;;;;-147.17;100.00;50470.00;5030746;28;51251;-57
2022/01/23 01:07:12;;;;;;;;;40.50;33.50;;;;;-147.17;100.00;50509.38;5020275;28;51161;-58
2022/01/23 01:09:37;;;;;;;;;37.75;35.25;;;;;-147.17;100.00;50470.00;5020649;28;52483;-57
2022/01/23 01:12:05;;;;;;;;;22.00;14.75;;;;;-147.17;100.00;50475.91;5027936;28;51148;-58
2022/01/23 01:38:13;;;;;;;;;45.00;36.00;;;;;-147.17;100.00;50442.44;5025280;28;51135;-57
2022/01/23 01:40:39;;;;;;;;;39.75;35.00;;;;;-147.17;100.00;50481.81;5022040;28;51214;-56
2022/01/23 01:43:04;;;;;;;;;39.50;36.25;;;;;-147.17;100.00;50473.94;5020238;28;51600;-57
2022/01/23 01:45:32;;;;;;;;;43.50;37.50;;;;;-147.17;100.00;50470.00;5016339;28;51073;-56
2022/01/23 01:48:00;;;;;;;;;38.75;35.50;;;;;-147.17;100.00;50473.94;5015034;28;51150;-56
2022/01/23 01:50:26;;;;;;;;;36.75;28.00;;;;;-147.17;100.00;50477.88;5017412;28;52806;-56
2022/01/23 01:52:52;;;;;;;;;36.50;32.25;;;;;-147.17;100.00;50477.88;5027243;28;51986;-56
2022/01/23 01:55:25;;;;;;;;;31.00;29.50;;;;;-147.17;100.00;50479.84;5014172;28;51022;-57
2022/01/23 01:57:54;;;;;;;;;40.00;34.75;;;;;-147.17;100.00;50462.13;5026547;28;51038;-56
2022/01/23 02:08:30;;;;;;;;;36.25;33.00;;;;;-147.17;100.00;50473.94;5020551;28;51263;-56
2022/01/23 02:11:04;;;;;;;;;31.25;31.00;;;;;-147.17;100.00;50489.69;5023993;28;51502;-56
2022/01/23 02:51:10;;;;;;;;;26.25;24.00;;;;;-147.17;100.00;50507.41;5017360;28;51392;-56
2022/01/23 02:54:04;;;;;;;;;29.25;26.50;;;;;-147.17;100.00;50493.63;5033214;28;51055;-57
2022/01/23 02:56:32;;;;;;;;;26.50;23.50;;;;;-147.17;100.00;50477.88;5021437;28;51749;-57
2022/01/23 02:59:00;;;;;;;;;33.25;30.25;;;;;-147.17;100.00;50454.25;5021887;28;51309;-57
2022/01/23 03:01:31;;;;;;;;;27.50;23.50;;;;;-147.17;100.00;50473.94;5030750;28;51257;-57
2022/01/23 03:03:59;;;;;;;;;35.75;33.00;;;;;-147.17;100.00;50458.19;5025721;28;51466;-57
2022/01/23 03:14:58;;;;;;;;;32.25;25.00;;;;;-147.17;100.00;50479.84;5014227;28;51106;-56
2022/01/23 03:30:28;;;;;;;;;33.50;30.00;;;;;-147.17;100.00;50481.81;5022753;28;51136;-57
2022/01/23 03:32:54;;;;;;;;;34.75;28.25;;;;;-147.17;100.00;50458.19;5019038;28;51151;-57
2022/01/23 03:35:22;;;;;;;;;38.75;33.00;;;;;-147.17;100.00;50456.22;5031062;28;51014;-57
2022/01/23 03:37:48;;;;;;;;;29.25;27.25;;;;;-147.17;100.00;50446.38;5029060;28;51128;-57
2022/01/23 03:40:14;;;;;;;;;30.00;25.75;;;;;-147.17;100.00;50458.19;5026491;28;51051;-57
2022/01/23 03:42:42;;;;;;;;;31.50;31.25;;;;;-147.17;100.00;50454.25;5028657;28;51472;-57
2022/01/23 03:45:55;;;;;;;;;26.25;25.75;;;;;-147.17;100.00;50485.75;5025615;28;51232;-57
2022/01/23 03:50:37;;;;;;;;;33.50;30.75;;;;;-147.17;100.00;50462.13;5020395;28;51669;-57
2022/01/23 03:53:03;;;;;;;;;31.00;27.00;;;;;-147.17;100.00;50495.59;5013898;28;51203;-57
2022/01/23 03:55:28;;;;;;;;;27.50;25.00;;;;;-147.17;100.00;50470.00;5015319;28;51186;-57
2022/01/23 03:57:53;;;;;;;;;32.00;29.50;;;;;-147.17;100.00;50462.13;5027202;28;52837;-57
2022/01/23 04:00:19;;;;;;;;;41.00;35.00;;;;;-147.17;100.00;50485.75;5024476;28;53743;-57
2022/01/23 04:02:44;;;;;;;;;30.25;28.25;;;;;-147.17;100.00;50446.38;5029053;28;51063;-58
2022/01/23 04:05:10;;;;;;;;;20.25;16.00;;;;;-147.17;100.00;50477.88;5030813;28;51260;-58
2022/01/23 04:07:36;;;;;;;;;30.25;29.75;;;;;-147.17;100.00;50468.03;5022076;28;51244;-58
2022/01/23 04:10:03;;;;;;;;;33.75;29.25;;;;;-147.17;100.00;50473.94;5016947;28;51200;-58
2022/01/23 04:15:28;;;;;;;;;30.00;27.25;;;;;-147.17;100.00;50468.03;5025964;28;51189;-58
2022/01/23 04:34:11;;;;;;;;;30.50;28.75;;;;;-147.17;100.00;50428.66;5020849;28;51384;-58
2022/01/23 05:01:40;;;;;;;;;26.75;24.00;;;;;-147.17;100.00;50462.13;5018084;28;51422;-57
2022/01/23 05:04:13;;;;;;;;;30.25;29.25;;;;;-147.17;100.00;50456.22;5021824;28;52321;-57
2022/01/23 05:06:47;;;;;;;;;26.00;22.50;;;;;-147.17;100.00;50471.97;5016489;28;51120;-57
2022/01/23 05:09:15;;;;;;;;;32.25;30.25;;;;;-147.17;100.00;50454.25;5022516;28;51354;-57
2022/01/23 05:11:50;;;;;;;;;25.00;23.75;;;;;-147.17;100.00;50470.00;5021455;28;51720;-57
2022/01/23 05:14:20;;;;;;;;;34.50;27.25;;;;;-147.17;100.00;50458.19;5024122;28;51206;-59
2022/01/23 05:16:46;;;;;;;;;28.25;25.75;;;;;-147.17;100.00;50442.44;5022050;28;51319;-57
2022/01/23 05:19:11;;;;;;;;;30.50;25.50;;;;;-147.17;100.00;50426.69;5020444;28;51204;-57
2022/01/23 05:24:08;;;;;;;;;32.50;28.75;;;;;-147.17;100.00;50473.94;5012924;28;51064;-57
2022/01/23 05:26:42;;;;;;;;;28.00;26.75;;;;;-147.17;100.00;50462.13;5026061;28;51168;-57
2022/01/23 05:29:07;;;;;;;;;33.25;28.75;;;;;-147.17;100.00;50434.56;5024249;28;51194;-56
2022/01/23 05:31:33;;;;;;;;;18.75;15.75;;;;;-147.17;100.00;50450.31;5018826;28;51877;-57
2022/01/23 05:33:58;;;;;;;;;33.00;29.50;;;;;-147.17;100.00;50452.28;5019968;28;51038;-57
2022/01/23 05:36:23;;;;;;;;;28.75;25.25;;;;;-147.17;100.00;50438.50;5023143;28;52845;-61
2022/01/23 05:38:49;;;;;;;;;32.25;28.25;;;;;-147.17;100.00;50432.59;5013434;28;51168;-58
2022/01/23 05:41:14;;;;;;;;;26.50;23.50;;;;;-147.17;100.00;50422.75;5019886;28;51171;-56
2022/01/23 05:43:39;;;;;;;;;36.00;27.75;;;;;-147.17;100.00;50460.16;5027616;28;51173;-57
2022/01/23 05:46:05;;;;;;;;;23.25;18.50;;;;;-147.17;100.00;50436.53;5022860;28;52438;-58
2022/01/23 05:48:30;;;;;;;;;25.25;22.00;;;;;-147.17;100.00;50438.50;5018881;28;51106;-56
2022/01/23 05:50:55;;;;;;;;;27.50;25.25;;;;;-147.17;100.00;50448.34;5015866;28;52337;-59
2022/01/23 05:53:21;;;;;;;;;31.25;27.50;;;;;-147.17;100.00;50436.53;5024356;28;51041;-58
2022/01/23 05:55:46;;;;;;;;;26.50;24.25;;;;;-147.17;100.00;50468.03;5023066;28;51248;-58
2022/01/23 05:58:11;;;;;;;;;27.25;22.25;;;;;-147.17;100.00;50438.50;5012267;28;51150;-58
2022/01/23 06:00:37;;;;;;;;;33.50;27.50;;;;;-147.17;100.00;50450.31;5019006;28;51243;-58
2022/01/23 06:03:02;;;;;;;;;28.25;24.25;;;;;-147.17;100.00;50470.00;5028781;28;50908;-57
2022/01/23 06:05:27;;;;;;;;;28.25;26.00;;;;;-147.17;100.00;50454.25;5025050;28;51071;-58
2022/01/23 06:07:53;;;;;;;;;23.25;20.50;;;;;-147.17;100.00;50430.63;5025050;28;50904;-58
2022/01/23 06:10:24;;;;;;;;;27.00;22.75;;;;;-147.17;100.00;50458.19;5028227;28;51207;-58
2022/01/23 06:12:50;;;;;;;;;22.50;20.50;;;;;-147.17;100.00;50424.72;5015680;28;51002;-58
2022/01/23 06:15:16;;;;;;;;;32.25;23.50;;;;;-147.17;100.00;50444.41;5014909;28;51261;-57
2022/01/23 06:17:42;;;;;;;;;23.00;21.25;;;;;-147.17;100.00;50442.44;5025229;28;51083;-57
2022/01/23 06:20:10;;;;;;;;;20.00;18.50;;;;;-147.17;100.00;50442.44;5030118;28;51811;-57
2022/01/23 06:22:35;;;;;;;;;24.50;19.00;;;;;-147.17;100.00;50448.34;5021568;28;51146;-57
2022/01/23 06:25:00;;;;;;;;;24.25;19.75;;;;;-147.17;100.00;50454.25;5024234;28;51348;-57
2022/01/23 06:27:28;;;;;;;;;22.25;19.25;;;;;-147.17;100.00;50460.16;5026069;28;51088;-57
2022/01/23 06:29:54;;;;;;;;;24.50;20.75;;;;;-147.17;100.00;50430.63;5020233;28;51917;-57
2022/01/23 06:32:19;;;;;;;;;23.00;19.75;;;;;-147.17;100.00;50468.03;5032992;28;51177;-57
2022/01/23 06:34:46;;;;;;;;;23.75;22.50;;;;;-147.17;100.00;50434.56;5030877;28;51842;-57
2022/01/23 06:37:12;;;;;;;;;18.00;11.75;;;;;-147.17;100.00;50442.44;5026187;28;51032;-59
2022/01/23 06:39:38;;;;;;;;;16.75;15.25;;;;;-147.17;100.00;50408.97;5031972;28;51209;-58
2022/01/23 06:42:03;;;;;;;;;21.25;20.75;;;;;-147.17;100.00;50454.25;5029977;28;51083;-57
2022/01/23 06:44:29;;;;;;;;;18.25;17.50;;;;;-147.17;100.00;50407.00;5032418;28;51179;-57
2022/01/23 06:46:55;;;;;;;;;15.75;15.00;;;;;-147.17;100.00;50430.63;5027478;28;51278;-58
2022/01/23 06:49:20;;;;;;;;;14.75;14.25;;;;;-147.17;100.00;50446.38;5019601;28;51778;-58
2022/01/23 06:51:47;;;;;;;;;19.25;16.25;;;;;-147.17;100.00;50434.56;5022619;28;51002;-58
2022/01/23 06:54:12;;;;;;;;;11.25;10.00;;;;;-147.17;100.00;50418.81;5027199;28;51250;-58
2022/01/23 06:56:38;;;;;;;;;13.50;10.00;;;;;-147.17;100.00;50420.78;5032448;28;51316;-58
2022/01/23 06:59:04;;;;;;;;;4.75;4.50;;;;;-147.17;100.00;50450.31;5024006;28;51644;-58
2022/01/23 07:01:29;;;;;;;;;11.00;9.75;;;;;-147.17;100.00;50462.13;5025416;28;50954;-60
2022/01/23 07:03:54;;;;;;;;;12.25;11.00;;;;;-147.17;100.00;50452.28;5019855;28;51559;-57
2022/01/23 07:06:20;;;;;;;;;11.50;10.50;;;;;-147.17;100.00;50430.63;5026339;28;51050;-57
2022/01/23 07:08:45;;;;;;;;;19.50;16.00;;;;;-147.17;100.00;50440.47;5028047;28;52366;-59
2022/01/23 07:11:10;;;;;;;;;11.00;10.25;;;;;-147.17;100.00;50418.81;5025331;28;51165;-58
2022/01/23 07:13:36;;;;;;;;;14.25;12.75;;;;;-147.17;100.00;50420.78;5020342;28;51038;-58
2022/01/23 07:16:02;;;;;;;;;11.25;10.25;;;;;-147.17;100.00;50450.31;5034083;28;52525;-57
2022/01/23 07:18:28;;;;;;;;;14.50;14.25;;;;;-147.17;100.00;50422.75;5026888;28;53264;-56
2022/01/23 07:20:53;;;;;;;;;14.75;13.50;;;;;-147.17;100.00;50424.72;5022028;28;51179;-57
2022/01/23 07:23:22;;;;;;;;;22.75;15.00;;;;;-147.17;100.00;50416.84;5030561;28;51761;-56
2022/01/23 07:25:48;;;;;;;;;19.50;14.50;;;;;-147.17;100.00;50446.38;5024146;28;51977;-57
2022/01/23 07:28:16;;;;;;;;;17.25;15.50;;;;;-147.17;100.00;50450.31;5027281;28;52640;-57
2022/01/23 07:30:55;;;;;;;;;14.25;13.75;;;;;-147.17;100.00;50434.56;5030429;28;51068;-57
2022/01/23 07:33:20;;;;;;;;;18.00;14.50;;;;;-147.17;100.00;50448.34;5032917;28;50973;-56
2022/01/23 07:35:47;;;;;;;;;16.75;14.00;;;;;-147.17;100.00;50497.56;5027642;28;51363;-58
2022/01/23 07:38:16;;;;;;;;;18.75;15.75;;;;;-147.17;100.00;50442.44;5023691;28;51866;-57
2022/01/23 07:40:43;;;;;;;;;22.75;19.50;;;;;-147.17;100.00;50448.34;5023197;28;51139;-56
2022/01/23 07:43:09;;;;;;;;;21.00;18.50;;;;;-147.17;100.00;50424.72;5021818;28;51122;-57
2022/01/23 07:45:34;;;;;;;;;19.25;15.25;;;;;-147.17;100.00;50426.69;5025705;28;51327;-58
2022/01/23 07:47:59;;;;;;;;;18.75;16.75;;;;;-147.17;100.00;50444.41;5027557;28;51988;-58
2022/01/23 07:50:25;;;;;;;;;19.25;16.25;;;;;-147.17;100.00;50420.78;5016025;28;51115;-61
2022/01/23 07:52:50;;;;;;;;;19.00;14.50;;;;;-147.17;100.00;50450.31;5020493;28;50923;-58
2022/01/23 07:55:17;;;;;;;;;18.00;16.25;;;;;-147.17;100.00;50444.41;5023412;28;51098;-58
2022/01/23 07:57:42;;;;;;;;;20.00;16.50;;;;;-147.17;100.00;50454.25;5030691;28;52110;-57
2022/01/23 08:00:10;;;;;;;;;14.75;13.50;;;;;-147.17;100.00;50442.44;5017712;28;51524;-57
2022/01/23 08:02:35;;;;;;;;;17.50;15.00;;;;;-147.17;100.00;50428.66;5026629;28;51017;-58
2022/01/23 08:05:01;;;;;;;;;18.00;16.25;;;;;-147.17;100.00;50432.59;5025218;28;51319;-57
2022/01/23 08:09:55;;;;;;;;;15.50;14.50;;;;;-147.17;100.00;50430.63;5013235;28;52714;-57
2022/01/23 08:12:21;;;;;;;;;21.50;17.75;;;;;-147.17;100.00;50430.63;5027982;28;50929;-58
2022/01/23 08:14:47;;;;;;;;;20.75;18.25;;;;;-147.17;100.00;50442.44;5019285;28;51281;-57
2022/01/23 08:17:12;;;;;;;;;24.00;18.50;;;;;-147.17;100.00;50444.41;5027262;28;51912;-58
2022/01/23 08:19:38;;;;;;;;;22.25;21.25;;;;;-147.17;100.00;50489.69;5013226;28;51124;-57
2022/01/23 08:22:03;;;;;;;;;15.75;12.25;;;;;-147.17;100.00;50420.78;5013353;28;50949;-57
2022/01/23 08:24:29;;;;;;;;;19.50;15.25;;;;;-147.17;100.00;50416.84;5026100;28;51149;-59
2022/01/23 08:26:54;;;;;;;;;19.50;15.00;;;;;-147.17;100.00;50458.19;5021354;28;51345;-57
2022/01/23 08:29:20;;;;;;;;;18.25;14.25;;;;;-147.17;100.00;50466.06;5023932;28;51168;-58
2022/01/23 08:31:45;;;;;;;;;17.75;15.50;;;;;-147.17;100.00;50438.50;5024030;28;51209;-58
2022/01/23 08:34:12;;;;;;;;;23.00;20.00;;;;;-147.17;100.00;50460.16;5029738;28;51117;-57
2022/01/23 08:36:37;;;;;;;;;19.25;16.00;;;;;-147.17;100.00;50412.91;5022564;28;51227;-58
2022/01/23 08:39:03;;;;;;;;;18.00;17.50;;;;;-147.17;100.00;50464.09;5029159;28;50933;-57
2022/01/23 08:44:13;;;;;;;;;14.75;13.75;;;;;-147.17;100.00;50436.53;5019499;28;51161;-57
2022/01/23 08:46:38;;;;;;;;;22.50;20.50;;;;;-147.17;100.00;50466.06;5028503;28;51942;-58
2022/01/23 08:49:04;;;;;;;;;22.75;20.00;;;;;-147.17;100.00;50442.44;5022556;28;51376;-57
2022/01/23 08:51:29;;;;;;;;;17.25;17.25;;;;;-147.17;100.00;50442.44;5019801;28;52001;-58
2022/01/23 08:53:55;;;;;;;;;19.50;17.75;;;;;-147.17;100.00;50452.28;5012934;28;51027;-58
2022/01/23 08:56:20;;;;;;;;;13.25;9.50;;;;;-147.17;100.00;50470.00;5017413;28;52078;-58
2022/01/23 08:58:45;;;;;;;;;24.00;18.50;;;;;-147.17;100.00;50440.47;5021015;28;50984;-58
2022/01/23 09:01:11;;;;;;;;;27.25;23.25;;;;;-147.17;100.00;50450.31;5011512;28;51231;-58
2022/01/23 09:03:36;;;;;;;;;22.25;18.50;;;;;-147.17;100.00;50454.25;5014388;28;51054;-58
2022/01/23 09:06:05;;;;;;;;;19.50;15.00;;;;;-147.17;100.00;50438.50;5020697;28;51111;-57
2022/01/23 09:08:30;;;;;;;;;17.75;15.75;;;;;-147.17;100.00;50403.06;5022722;28;51022;-58
2022/01/23 09:10:58;;;;;;;;;22.25;17.50;;;;;-147.17;100.00;50434.56;5018363;28;51058;-58
2022/01/23 09:13:39;;;;;;;;;19.25;16.75;;;;;-147.17;100.00;50458.19;5025881;28;50975;-58
2022/01/23 09:16:06;;;;;;;;;22.00;18.75;;;;;-147.17;100.00;50438.50;5020212;28;51755;-57
2022/01/23 09:18:33;;;;;;;;;18.75;18.50;;;;;-147.17;100.00;50432.59;5018265;28;51131;-57
2022/01/23 09:20:58;;;;;;;;;18.75;17.00;;;;;-147.17;100.00;50424.72;5030078;28;51261;-57
2022/01/23 09:23:23;;;;;;;;;24.00;22.50;;;;;-147.17;100.00;50422.75;5027227;28;51372;-57
2022/01/23 09:25:49;;;;;;;;;21.25;20.25;;;;;-147.17;100.00;50438.50;5019166;28;51098;-58
2022/01/23 09:28:17;;;;;;;;;19.25;17.00;;;;;-147.17;100.00;50468.03;5016445;28;50932;-57
2022/01/23 09:30:45;;;;;;;;;24.00;22.50;;;;;-147.17;100.00;50458.19;5029120;28;51173;-56
2022/01/23 09:33:11;;;;;;;;;22.00;18.50;;;;;-147.17;100.00;50418.81;5019748;28;51310;-58
2022/01/23 09:35:36;;;;;;;;;21.25;16.25;;;;;-147.17;100.00;50466.06;5021675;28;51887;-58
2022/01/23 09:38:02;;;;;;;;;18.25;16.00;;;;;-147.17;100.00;50458.19;5021288;28;51158;-60
2022/01/23 09:40:27;;;;;;;;;17.75;16.00;;;;;-147.17;100.00;50450.31;5024312;28;51078;-60
2022/01/23 09:43:01;;;;;;;;;22.00;19.00;;;;;-147.17;100.00;50434.56;5025235;28;50929;-59
2022/01/23 09:45:28;;;;;;;;;18.75;17.50;;;;;-147.17;100.00;50424.72;5026035;28;51273;-60
2022/01/23 09:47:57;;;;;;;;;18.50;15.75;;;;;-147.17;100.00;50430.63;5019527;28;51015;-60
2022/01/23 09:50:23;;;;;;;;;14.75;14.25;;;;;-147.17;100.00;50442.44;5026227;28;51408;-59
2022/01/23 09:52:53;;;;;;;;;19.50;15.50;;;;;-147.17;100.00;50430.63;5025070;28;51282;-60
2022/01/23 09:55:19;;;;;;;;;19.00;16.50;;;;;-147.17;100.00;50424.72;5021395;28;52320;-60
2022/01/23 09:57:49;;;;;;;;;17.50;15.50;;;;;-147.17;100.00;50436.53;5022500;28;51232;-60
2022/01/23 10:00:17;;;;;;;;;16.75;14.75;;;;;-147.17;100.00;50428.66;5021572;28;51174;-60
2022/01/23 10:02:46;;;;;;;;;13.75;13.25;;;;;-147.17;100.00;50442.44;5022948;28;51400;-61
2022/01/23 10:05:12;;;;;;;;;17.00;16.25;;;;;-147.17;100.00;50434.56;5020869;28;51173;-59
2022/01/23 10:07:42;;;;;;;;;16.50;15.50;;;;;-147.17;100.00;50460.16;5026343;28;51222;-59
2022/01/23 10:10:11;;;;;;;;;9.50;8.00;;;;;-147.17;100.00;50436.53;5019468;28;51338;-60
2022/01/23 10:12:47;;;;;;;;;13.00;12.00;;;;;-147.17;100.00;50452.28;5017696;28;51183;-59
2022/01/23 10:15:12;;;;;;;;;12.75;12.75;;;;;-147.17;100.00;50438.50;5013321;28;51156;-58
2022/01/23 10:17:39;;;;;;;;;6.50;6.25;;;;;-147.17;100.00;50446.38;5012383;28;51399;-59
2022/01/23 10:20:08;;;;;;;;;14.00;13.00;;;;;-147.17;100.00;50440.47;5018624;28;51247;-58
2022/01/23 10:22:36;;;;;;;;;12.00;11.00;;;;;-147.17;100.00;50426.69;5023763;28;51058;-58
2022/01/23 10:25:11;;;;;;;;;9.00;7.50;;;;;-147.17;100.00;50414.88;5025621;28;52425;-60
2022/01/23 10:27:53;;;;;;;;;6.25;6.25;;;;;-147.17;100.00;50454.25;5021214;28;50920;-58
2022/01/23 10:30:23;;;;;;;;;13.00;11.00;;;;;-147.17;100.00;50420.78;5014311;28;51360;-59
2022/01/23 10:33:03;;;;;;;;;11.00;11.00;;;;;-147.17;100.00;50426.69;5023639;28;51190;-64
2022/01/23 10:35:29;;;;;;;;;12.25;10.50;;;;;-147.17;100.00;50426.69;5024532;28;51201;-59
2022/01/23 10:37:55;;;;;;;;;14.25;11.50;;;;;-147.17;100.00;50454.25;5028656;28;51110;-60
2022/01/23 10:40:21;;;;;;;;;17.50;13.75;;;;;-147.17;100.00;50466.06;5018958;28;51128;-60
2022/01/23 10:50:45;;;;;;;;;15.25;13.25;;;;;-147.17;100.00;50426.69;5029814;28;51158;-59
2022/01/23 10:53:10;;;;;;;;;16.75;14.25;;;;;-147.17;100.00;50436.53;5024516;28;51225;-60
2022/01/23 10:55:36;;;;;;;;;19.00;16.50;;;;;-147.17;100.00;50430.63;5022897;28;53185;-60
2022/01/23 10:58:06;;;;;;;;;18.75;15.25;;;;;-147.17;100.00;50432.59;5011319;28;51009;-60
2022/01/23 11:00:39;;;;;;;;;17.25;15.50;;;;;-147.17;100.00;50430.63;5011034;28;51005;-58
2022/01/23 11:03:17;;;;;;;;;15.25;13.75;;;;;-147.17;100.00;50432.59;5011260;28;50891;-59
2022/01/23 11:05:44;;;;;;;;;17.50;15.00;;;;;-147.17;100.00;50448.34;5025668;28;53049;-59
2022/01/23 11:08:30;;;;;;;;;15.00;13.75;;;;;-147.17;100.00;50454.25;5013721;28;51159;-59
2022/01/23 11:11:01;;;;;;;;;14.75;13.00;;;;;-147.17;100.00;50442.44;5013854;28;51057;-59
2022/01/23 11:19:26;;;;;;;;;18.25;15.75;;;;;-147.17;100.00;50434.56;5022502;28;51037;-59
2022/01/23 11:21:53;;;;;;;;;36.25;32.50;;;;;-147.17;100.00;50434.56;5022036;28;51203;-58
2022/01/23 11:24:19;;;;;;;;;33.50;32.50;;;;;-147.17;100.00;50434.56;5014232;28;51487;-59
2022/01/23 11:26:45;;;;;;;;;32.50;31.00;;;;;-147.17;100.00;50458.19;5014053;28;51101;-60
2022/01/23 11:29:16;;;;;;;;;28.50;24.75;;;;;-147.17;100.00;50426.69;5026132;28;51025;-59
2022/01/23 11:31:43;;;;;;;;;22.25;19.50;;;;;-147.17;100.00;50438.50;5014086;28;51203;-60
2022/01/23 11:34:14;;;;;;;;;16.75;15.00;;;;;-147.17;100.00;50428.66;5014416;28;50967;-59
2022/01/23 11:36:41;;;;;;;;;19.50;15.00;;;;;-147.17;100.00;50399.13;5027970;28;53848;-59
2022/01/23 11:39:13;;;;;;;;;20.50;17.75;;;;;-147.17;100.00;50416.84;5034179;28;51054;-59
2022/01/23 11:51:01;;;;;;;;;16.00;14.00;;;;;-147.17;100.00;50412.91;5033640;28;51047;-60
2022/01/23 11:53:50;;;;;;;;;18.00;12.50;;;;;-147.17;100.00;50408.97;5032825;28;51149;-59
2022/01/23 11:56:28;;;;;;;;;11.75;10.50;;;;;-147.17;100.00;50430.63;5033613;28;51013;-59
2022/01/23 11:59:27;;;;;;;;;10.25;10.25;;;;;-147.17;100.00;50493.63;5032768;28;52047;-60
2022/01/23 12:02:11;;;;;;;;;15.25;15.00;;;;;-147.17;100.00;50414.88;5019223;28;51108;-60
2022/01/23 12:04:58;;;;;;;;;17.25;14.00;;;;;-147.17;100.00;50422.75;5030626;28;51343;-60
2022/01/23 12:07:23;;;;;;;;;19.00;14.25;;;;;-147.17;100.00;50430.63;5022298;28;51232;-58
2022/01/23 12:10:22;;;;;;;;;16.25;13.75;;;;;-147.17;100.00;50448.34;5028383;28;54455;-59
2022/01/23 12:12:51;;;;;;;;;20.50;15.75;;;;;-147.17;100.00;50454.25;5022935;28;51166;-59
2022/01/23 12:18:29;;;;;;;;;13.75;10.25;;;;;-147.17;100.00;50462.13;5021788;28;50915;-60
2022/01/23 12:20:55;;;;;;;;;16.25;14.75;;;;;-147.17;100.00;50468.03;5020539;28;52836;-60
2022/01/23 12:23:21;;;;;;;;;14.25;13.50;;;;;-147.17;100.00;50446.38;5032639;28;51067;-60
2022/01/23 12:25:50;;;;;;;;;12.25;10.25;;;;;-147.17;100.00;50446.38;5033129;28;51093;-59
2022/01/23 12:28:21;;;;;;;;;10.75;10.75;;;;;-147.17;100.00;50444.41;5027521;28;51183;-58
2022/01/23 12:30:57;;;;;;;;;13.25;13.00;;;;;-147.17;100.00;50460.16;5024903;28;51799;-59
2022/01/23 12:33:28;;;;;;;;;14.25;14.00;;;;;-147.17;100.00;50444.41;5032303;28;51014;-59
2022/01/23 12:35:58;;;;;;;;;20.00;18.75;;;;;-147.17;100.00;50477.88;5023284;28;51086;-59
2022/01/23 12:38:47;;;;;;;;;16.75;15.00;;;;;-147.17;100.00;50424.72;5013905;28;51226;-60
2022/01/23 12:41:30;;;;;;;;;17.50;17.50;;;;;-147.17;100.00;50436.53;5012419;28;52068;-60
2022/01/23 12:44:01;;;;;;;;;18.50;18.00;;;;;-147.17;100.00;50454.25;5012192;28;51016;-59
2022/01/23 12:46:36;;;;;;;;;19.50;17.75;;;;;-147.17;100.00;50432.59;5024428;28;51118;-59
2022/01/23 12:49:18;;;;;;;;;16.25;14.75;;;;;-147.17;100.00;50454.25;5012621;28;51314;-60
2022/01/23 12:51:45;;;;;;;;;19.00;18.25;;;;;-147.17;100.00;50470.00;5012278;28;52278;-60
2022/01/23 12:54:17;;;;;;;;;22.50;21.00;;;;;-147.17;100.00;50456.22;5012558;28;50972;-61
2022/01/23 12:56:45;;;;;;;;;18.75;18.00;;;;;-147.17;100.00;50426.69;5011612;28;51036;-59
2022/01/23 12:59:21;;;;;;;;;27.50;25.00;;;;;-147.17;100.00;50428.66;5010439;28;51287;-59
2022/01/23 13:01:47;;;;;;;;;30.25;27.25;;;;;-147.17;100.00;50462.13;5012106;28;51372;-60
2022/01/23 13:04:14;;;;;;;;;25.50;22.50;;;;;-147.17;100.00;50442.44;5012205;28;51120;-60
2022/01/23 13:06:48;;;;;;;;;22.50;20.50;;;;;-147.17;100.00;50446.38;5012513;28;50957;-60
2022/01/23 13:09:27;;;;;;;;;31.75;28.50;;;;;-147.17;100.00;50456.22;5012002;28;51266;-60
2022/01/23 13:14:49;;;;;;;;;30.75;25.75;;;;;-147.17;100.00;50438.50;5011635;28;50960;-60
2022/01/23 13:30:24;;;;;;;;;28.25;24.50;;;;;-147.17;100.00;50442.44;5019030;28;50933;-59
2022/01/23 13:32:58;;;;;;;;;25.50;23.50;;;;;-147.17;100.00;50468.03;5012377;28;52924;-59
2022/01/23 13:35:29;;;;;;;;;19.75;17.25;;;;;-147.17;100.00;50436.53;5011749;28;51151;-59
2022/01/23 13:37:59;;;;;;;;;15.00;7.75;;;;;-147.17;100.00;50428.66;5012379;28;51138;-59
2022/01/23 13:40:36;;;;;;;;;21.25;18.75;;;;;-147.17;100.00;50473.94;5012136;28;50924;-59
2022/01/23 13:59:32;;;;;;;;;23.75;19.50;;;;;-147.17;100.00;50430.63;5031252;28;51092;-60
2022/01/23 14:02:15;;;;;;;;;23.00;20.25;;;;;-147.17;100.00;50434.56;5031456;28;51090;-60
2022/01/23 14:04:45;;;;;;;;;16.25;14.00;;;;;-147.17;100.00;50434.56;5016833;28;54450;-60
2022/01/23 14:07:11;;;;;;;;;20.75;18.75;;;;;-147.17;100.00;50420.78;5018012;28;51047;-60
2022/01/23 14:09:45;;;;;;;;;25.00;21.75;;;;;-147.17;100.00;50440.47;5031492;28;51062;-60
2022/01/23 14:12:13;;;;;;;;;22.75;21.75;;;;;-147.17;100.00;50446.38;5032006;28;51059;-60
2022/01/23 14:15:16;;;;;;;;;18.00;17.50;;;;;-147.17;100.00;50468.03;5030753;28;52094;-60
2022/01/23 14:17:43;;;;;;;;;25.00;24.75;;;;;-147.17;100.00;50430.63;5024408;28;51098;-59
2022/01/23 14:20:13;;;;;;;;;25.50;21.00;;;;;-147.17;100.00;50430.63;5019576;28;50946;-59
2022/01/23 14:22:42;;;;;;;;;24.00;21.00;;;;;-147.17;100.00;50438.50;5010881;28;51017;-60
2022/01/23 14:25:13;;;;;;;;;21.00;20.00;;;;;-147.17;100.00;50440.47;5010603;28;51854;-59
2022/01/23 14:27:41;;;;;;;;;24.75;19.00;;;;;-147.17;100.00;50473.94;5021941;28;51142;-59
2022/01/23 14:30:12;;;;;;;;;15.25;11.50;;;;;-147.17;100.00;50448.34;5009378;28;51134;-60
2022/01/23 14:32:50;;;;;;;;;19.25;18.25;;;;;-147.17;100.00;50460.16;5015922;28;51319;-59
2022/01/23 14:35:26;;;;;;;;;11.75;10.75;;;;;-147.17;100.00;50499.53;5010346;28;51922;-59
2022/01/23 14:37:53;;;;;;;;;18.00;16.75;;;;;-147.17;100.00;50430.63;5010432;28;51147;-60